Portada
METAR-TAF:

METAR-TAF

Aeropuertos :

Aeropuerto de Huesca-Pirineos

Huesca, España

latitud: 42-04-32N, longitud: 0-18-58W, altitud: 539 m

Observación

El informe se hizo hace 23 minutos, a las 04:30 UTC
Viento calma
Temperatura 18°C
Humedad 88%
Presión 1013 hPa
Visibilidad 10 km o más
sin nubes por debajo de 1500 m y sin presencia de cumulonimbus.

METAR: LEHC 300430Z AUTO 00000KT CAVOK 18/16 Q1013

Hora: 06:53 (04:53 UTC)

Pronóstico

El informe se hizo hace 2 horas y 53 minutos, a las 02:00 UTC
Pronóstico válido del 30 a las 03 UTC al 31 a las 03 UTC
Viento 9 kt del este
Visibilidad 10 km o más
Escasas nubes a una altura de 6000 ft
Evolucionando progresivamente
del 30 a las 08 UTC al 30 a las 11 UTC
Viento 10 kt del oeste-noroeste
Evolucionando progresivamente
del 30 a las 23 UTC al 31 a las 02 UTC
Viento 5 kt del este

TAF: LEHC 300200Z 3003/3103 10009KT 9999 FEW060 TX33/3014Z TN19/3005Z BECMG 3008/3011 29010KT BECMG 3023/3102 08005KT

Observaciones y pronósticos meteorológicos de más de 4000 aeropuertos (mensajes METAR y TAF).

Los puntos amarillos y rojos representan las estaciones disponibles.

Ponga el ratón en el punto deseado para ver el nombre de la estación.

Haga clic para ver las observaciones y los pronósticos meteorológicos.

Para cambiar el mapa : haga clic en los botones verdes con una cruz de color negro para hacer un zoom, en el botón verde con un guión para alejar o en las flechas verdes para mapas adyacentes.


METAR-TAF: